createdAt,value
2022-10-06T00:04:55.629Z,8.48
2022-10-06T00:09:59.518Z,7.30
2022-10-06T00:15:03.419Z,9.88
2022-10-06T00:20:11.087Z,9.20
2022-10-06T00:25:20.960Z,10.63
2022-10-06T00:30:26.941Z,7.22
2022-10-06T00:35:34.454Z,7.80
2022-10-06T00:40:44.802Z,6.32
2022-10-06T00:45:50.336Z,6.30
2022-10-06T00:50:59.147Z,5.18
2022-10-06T00:56:03.291Z,6.15
2022-10-06T01:01:09.246Z,6.82
2022-10-06T01:11:21.656Z,7.50
2022-10-06T01:16:27.411Z,5.80
2022-10-06T01:21:39.547Z,10.43
2022-10-06T01:26:51.279Z,5.32
2022-10-06T01:31:55.915Z,4.03
2022-10-06T01:37:00.354Z,6.57
2022-10-06T01:42:07.089Z,8.02
2022-10-06T01:47:11.518Z,3.28
2022-10-06T01:52:15.551Z,6.15
2022-10-06T01:57:21.903Z,10.60
2022-10-06T02:02:26.800Z,7.38
2022-10-06T02:07:30.671Z,7.85
2022-10-06T02:12:36.413Z,7.07
2022-10-06T02:17:40.395Z,5.30
2022-10-06T02:22:44.794Z,9.88
2022-10-06T02:27:50.283Z,8.65
2022-10-06T02:32:54.697Z,10.60
2022-10-06T02:37:58.876Z,9.30
2022-10-06T02:43:05.091Z,7.10
2022-10-06T02:48:09.277Z,7.38
2022-10-06T02:53:14.552Z,5.18
2022-10-06T02:58:19.904Z,8.13
2022-10-06T03:03:24.075Z,6.15
2022-10-06T03:08:28.364Z,6.40
2022-10-06T03:13:35.003Z,9.27
2022-10-06T03:18:40.149Z,5.97
2022-10-06T03:23:45.168Z,7.22
2022-10-06T03:28:50.745Z,8.27
2022-10-06T03:33:56.739Z,7.57
2022-10-06T03:39:04.899Z,5.60
2022-10-06T03:44:11.810Z,9.18
2022-10-06T03:49:18.913Z,7.75
2022-10-06T03:54:22.933Z,10.13
2022-10-06T03:59:34.374Z,5.07
2022-10-06T04:04:40.376Z,5.57
2022-10-06T04:09:46.776Z,8.85
2022-10-06T04:20:04.891Z,7.53
2022-10-06T04:25:09.775Z,8.02
2022-10-06T04:30:16.039Z,4.90
2022-10-06T04:35:21.420Z,8.68
2022-10-06T04:40:25.889Z,5.30
2022-10-06T04:45:31.502Z,4.82
2022-10-06T04:50:35.650Z,7.20
2022-10-06T04:55:47.800Z,7.25
2022-10-06T05:00:53.441Z,8.43
2022-10-06T05:06:04.807Z,10.43
2022-10-06T05:11:15.208Z,9.55
2022-10-06T05:16:25.031Z,8.32
2022-10-06T05:21:31.228Z,5.38
2022-10-06T05:26:37.930Z,7.25
2022-10-06T05:31:46.995Z,8.57
2022-10-06T05:36:52.169Z,8.32
2022-10-06T05:41:56.166Z,9.65
2022-10-06T05:47:05.781Z,7.22
2022-10-06T05:52:09.816Z,11.43
2022-10-06T05:57:14.040Z,10.57
2022-10-06T06:02:19.513Z,9.93
2022-10-06T06:12:28.081Z,8.70
2022-10-06T06:17:52.639Z,9.57
2022-10-06T06:22:56.604Z,9.98
2022-10-06T06:28:05.539Z,7.43
2022-10-06T06:33:13.181Z,7.00
2022-10-06T06:38:23.341Z,9.00
2022-10-06T06:43:31.364Z,8.57
2022-10-06T06:49:04.803Z,8.63
2022-10-06T06:54:14.346Z,6.15
2022-10-06T06:59:22.694Z,5.70
2022-10-06T07:04:33.085Z,13.77
2022-10-06T07:09:37.909Z,10.20
2022-10-06T07:15:01.245Z,8.35
2022-10-06T07:20:27.370Z,9.35
2022-10-06T07:25:32.254Z,6.82
2022-10-06T07:30:41.245Z,9.60
2022-10-06T07:35:57.563Z,12.80
2022-10-06T07:46:30.382Z,9.15
2022-10-06T07:51:49.805Z,9.52
2022-10-06T07:56:54.933Z,9.70
2022-10-06T08:01:58.937Z,9.02
2022-10-06T08:07:05.602Z,7.00
2022-10-06T08:12:23.256Z,6.47
2022-10-06T08:17:27.297Z,5.68
2022-10-06T08:22:32.694Z,5.72
2022-10-06T08:27:38.103Z,4.43
2022-10-06T08:32:43.408Z,7.60
2022-10-06T08:37:50.308Z,10.38
2022-10-06T08:42:58.308Z,8.65
2022-10-06T08:48:05.312Z,7.45
2022-10-06T08:53:17.787Z,9.52
2022-10-06T08:58:32.385Z,7.80
2022-10-06T09:03:38.726Z,13.00
2022-10-06T09:08:51.114Z,5.53
2022-10-06T09:14:38.022Z,4.13
2022-10-06T09:34:02.060Z,5.50
2022-10-06T09:45:37.600Z,4.47
2022-10-06T09:57:49.401Z,7.68
2022-10-06T10:04:21.559Z,8.52
2022-10-06T10:38:18.294Z,8.77
2022-10-06T10:45:41.432Z,7.38
2022-10-06T11:42:37.841Z,4.20
2022-10-06T11:48:25.558Z,7.72
2022-10-06T12:17:05.648Z,10.68
2022-10-06T12:22:18.848Z,10.13
2022-10-06T12:27:56.797Z,9.90
2022-10-06T13:18:14.656Z,10.07
2022-10-06T13:23:37.578Z,5.43
2022-10-06T13:28:48.014Z,7.55
2022-10-06T13:33:56.711Z,8.30
2022-10-06T13:39:04.492Z,6.88
2022-10-06T13:44:29.136Z,9.77
2022-10-06T13:50:04.318Z,7.53
2022-10-06T13:55:20.574Z,7.30
2022-10-06T14:00:28.953Z,10.80
2022-10-06T14:05:37.364Z,11.65
2022-10-06T14:10:49.948Z,9.88
2022-10-06T14:16:04.083Z,13.35
2022-10-06T14:21:22.773Z,8.45
2022-10-06T14:26:37.865Z,4.57
2022-10-06T14:31:42.265Z,10.75
2022-10-06T14:36:48.906Z,8.85
2022-10-06T14:41:54.463Z,7.70
2022-10-06T14:46:59.049Z,10.00
2022-10-06T14:52:04.335Z,7.75
2022-10-06T14:57:10.988Z,10.07
2022-10-06T15:02:20.359Z,8.52
2022-10-06T15:07:42.546Z,13.35
2022-10-06T15:12:48.223Z,8.13
2022-10-06T15:17:52.881Z,12.60
2022-10-06T15:22:57.570Z,11.15
2022-10-06T15:28:22.961Z,10.50
2022-10-06T15:33:30.636Z,18.33
2022-10-06T15:38:37.735Z,58.75
2022-10-06T15:43:58.446Z,48.35
2022-10-06T15:49:04.831Z,39.83
2022-10-06T15:54:11.323Z,21.35
2022-10-06T15:59:17.085Z,23.40
2022-10-06T16:04:29.277Z,27.25
2022-10-06T16:09:38.101Z,31.45
2022-10-06T16:14:46.825Z,27.02
2022-10-06T16:19:50.887Z,20.88
2022-10-06T16:24:54.926Z,23.08
2022-10-06T16:30:00.576Z,27.73
2022-10-06T16:35:04.673Z,18.50
2022-10-06T16:40:09.373Z,24.75
2022-10-06T16:45:15.617Z,20.83
2022-10-06T16:50:19.575Z,19.65
2022-10-06T16:55:23.679Z,20.80
2022-10-06T17:00:29.111Z,17.05
2022-10-06T17:05:34.789Z,17.70
2022-10-06T17:10:38.685Z,16.85
2022-10-06T17:15:46.450Z,18.80
2022-10-06T17:20:55.491Z,20.45
2022-10-06T17:26:04.881Z,23.08
2022-10-06T17:31:13.324Z,24.60
2022-10-06T17:36:19.937Z,16.35
2022-10-06T17:41:29.661Z,18.73
2022-10-06T17:46:38.752Z,20.00
2022-10-06T17:51:45.199Z,23.40
2022-10-06T17:56:51.021Z,18.77
2022-10-06T18:07:02.447Z,17.13
2022-10-06T18:12:07.948Z,29.90
2022-10-06T18:17:19.126Z,24.20
2022-10-06T18:22:23.614Z,18.23
2022-10-06T18:27:28.011Z,24.30
2022-10-06T18:38:03.280Z,22.10
2022-10-06T18:43:07.551Z,20.90
2022-10-06T18:48:30.284Z,18.38
2022-10-06T18:53:38.556Z,19.92
2022-10-06T18:58:43.030Z,21.70
2022-10-06T19:03:48.977Z,20.02
2022-10-06T19:08:57.324Z,19.42
2022-10-06T19:14:01.675Z,18.30
2022-10-06T19:19:11.752Z,15.38
2022-10-06T19:24:17.680Z,19.23
2022-10-06T19:29:23.803Z,22.10
2022-10-06T19:34:29.518Z,16.52
2022-10-06T19:39:40.473Z,14.65
2022-10-06T19:44:44.975Z,12.32
2022-10-06T19:49:50.983Z,14.50
2022-10-06T19:54:55.030Z,17.05
2022-10-06T19:59:59.078Z,12.02
2022-10-06T20:05:04.576Z,15.60
2022-10-06T20:10:09.279Z,13.57
2022-10-06T20:15:13.441Z,15.52
2022-10-06T20:20:20.695Z,11.75
2022-10-06T20:25:26.521Z,16.80
2022-10-06T20:30:31.403Z,13.60
2022-10-06T20:35:37.919Z,12.45
2022-10-06T20:40:49.376Z,8.88
2022-10-06T20:45:54.961Z,15.63
2022-10-06T20:56:07.189Z,10.93
2022-10-06T21:01:16.231Z,18.98
2022-10-06T21:06:25.062Z,12.63
2022-10-06T21:11:29.368Z,11.88
2022-10-06T21:16:36.661Z,9.45
2022-10-06T21:21:43.328Z,10.30
2022-10-06T21:26:47.655Z,9.13
2022-10-06T21:31:51.823Z,12.20
2022-10-06T21:37:03.621Z,13.73
2022-10-06T21:42:10.453Z,16.33
2022-10-06T21:47:16.387Z,15.35
2022-10-06T21:52:22.214Z,10.68
2022-10-06T22:02:32.805Z,9.25
2022-10-06T22:07:38.601Z,9.60
2022-10-06T22:17:51.452Z,13.35
2022-10-06T22:22:59.347Z,14.38
2022-10-06T22:28:10.269Z,9.02
2022-10-06T22:33:18.713Z,15.10
2022-10-06T22:38:30.046Z,12.15
2022-10-06T22:43:35.483Z,14.60
2022-10-06T22:48:40.762Z,15.32
2022-10-06T22:53:46.845Z,14.43
2022-10-06T22:58:52.740Z,11.50
2022-10-06T23:03:57.347Z,13.82
2022-10-06T23:09:03.914Z,13.33
2022-10-06T23:14:13.773Z,15.15
2022-10-06T23:19:24.145Z,11.65
2022-10-06T23:24:37.223Z,9.93
2022-10-06T23:29:51.694Z,14.52
2022-10-06T23:34:57.519Z,12.55
2022-10-06T23:40:10.967Z,14.50
2022-10-06T23:45:28.627Z,12.13
2022-10-06T23:55:40.782Z,16.33
